createdAt,value
2018-07-22T00:01:02.474Z,16.52
2018-07-22T00:03:30.721Z,16.77
2018-07-22T00:05:59.031Z,15.10
2018-07-22T00:08:27.318Z,14.60
2018-07-22T00:10:55.630Z,16.32
2018-07-22T00:13:23.894Z,16.30
2018-07-22T00:15:52.152Z,17.40
2018-07-22T00:18:20.392Z,16.55
2018-07-22T00:20:48.660Z,17.23
2018-07-22T00:23:17.048Z,15.48
2018-07-22T00:25:45.441Z,17.17
2018-07-22T00:28:14.021Z,14.93
2018-07-22T00:30:42.460Z,16.05
2018-07-22T00:33:10.753Z,15.35
2018-07-22T00:35:39.031Z,15.68
2018-07-22T00:38:07.439Z,16.17
2018-07-22T00:40:36.298Z,15.58
2018-07-22T00:43:04.717Z,16.20
2018-07-22T00:45:32.979Z,14.40
2018-07-22T00:48:01.441Z,18.95
2018-07-22T00:50:29.759Z,15.25
2018-07-22T00:52:58.745Z,13.75
2018-07-22T00:55:27.112Z,14.40
2018-07-22T00:57:55.404Z,11.60
2018-07-22T01:00:23.471Z,14.90
2018-07-22T01:02:51.772Z,12.98
2018-07-22T01:05:19.756Z,13.75
2018-07-22T01:07:48.055Z,13.62
2018-07-22T01:10:16.412Z,16.87
2018-07-22T01:12:44.738Z,13.93
2018-07-22T01:15:13.042Z,12.47
2018-07-22T01:17:41.326Z,9.00
2018-07-22T01:20:10.163Z,11.60
2018-07-22T01:22:38.844Z,10.63
2018-07-22T01:25:07.157Z,9.77
2018-07-22T01:27:35.476Z,10.95
2018-07-22T01:30:04.935Z,13.05
2018-07-22T01:32:33.217Z,12.65
2018-07-22T01:35:01.432Z,11.08
2018-07-22T01:37:29.698Z,12.13
2018-07-22T01:39:57.985Z,11.83
2018-07-22T01:42:26.263Z,13.63
2018-07-22T01:44:54.555Z,9.55
2018-07-22T01:47:22.919Z,14.13
2018-07-22T01:49:51.192Z,11.33
2018-07-22T01:52:19.563Z,11.50
2018-07-22T01:54:47.828Z,12.15
2018-07-22T01:57:16.044Z,10.37
2018-07-22T01:59:44.365Z,9.63
2018-07-22T02:02:12.601Z,13.95
2018-07-22T02:04:40.905Z,11.57
2018-07-22T02:07:09.518Z,11.63
2018-07-22T02:09:37.838Z,12.37
2018-07-22T02:12:06.157Z,14.07
2018-07-22T02:14:34.578Z,13.73
2018-07-22T02:17:02.898Z,11.33
2018-07-22T02:19:31.217Z,12.10
2018-07-22T02:21:59.480Z,15.17
2018-07-22T02:24:27.722Z,17.70
2018-07-22T02:26:56.027Z,15.87
2018-07-22T02:29:24.286Z,12.65
2018-07-22T02:31:52.547Z,10.53
2018-07-22T02:34:20.807Z,9.27
2018-07-22T02:36:49.131Z,12.80
2018-07-22T02:39:17.113Z,13.67
2018-07-22T02:41:45.364Z,10.03
2018-07-22T02:44:13.610Z,12.53
2018-07-22T02:46:41.984Z,15.27
2018-07-22T02:49:10.310Z,13.67
2018-07-22T02:51:38.624Z,12.13
2018-07-22T02:54:06.828Z,11.60
2018-07-22T02:56:35.101Z,15.50
2018-07-22T02:59:04.462Z,13.27
2018-07-22T03:01:35.924Z,11.97
2018-07-22T03:04:04.383Z,13.03
2018-07-22T03:06:33.192Z,11.90
2018-07-22T03:09:01.513Z,15.33
2018-07-22T03:11:29.906Z,9.37
2018-07-22T03:13:58.182Z,12.13
2018-07-22T03:16:26.514Z,14.43
2018-07-22T03:18:54.791Z,9.63
2018-07-22T03:21:23.053Z,11.23
2018-07-22T03:23:52.192Z,13.40
2018-07-22T03:26:20.488Z,15.73
2018-07-22T03:28:48.784Z,10.77
2018-07-22T03:31:17.061Z,10.70
2018-07-22T03:33:45.323Z,13.60
2018-07-22T03:36:13.610Z,14.03
2018-07-22T03:38:41.938Z,14.20
2018-07-22T03:41:11.170Z,11.33
2018-07-22T03:43:39.418Z,13.10
2018-07-22T03:46:07.792Z,12.93
2018-07-22T03:48:36.084Z,15.07
2018-07-22T03:51:04.095Z,10.83
2018-07-22T03:53:32.405Z,15.27
2018-07-22T03:56:00.724Z,12.60
2018-07-22T03:58:29.034Z,14.10
2018-07-22T04:00:57.378Z,17.17
2018-07-22T04:03:25.691Z,11.23
2018-07-22T04:05:53.985Z,11.93
2018-07-22T04:08:22.264Z,14.47
2018-07-22T04:10:50.591Z,14.37
2018-07-22T04:13:18.919Z,16.10
2018-07-22T04:15:47.187Z,12.00
2018-07-22T04:18:15.484Z,13.57
2018-07-22T04:20:43.765Z,11.90
2018-07-22T04:23:12.053Z,11.83
2018-07-22T04:25:40.391Z,12.07
2018-07-22T04:28:08.675Z,12.57
2018-07-22T04:30:36.959Z,15.67
2018-07-22T04:33:06.144Z,13.00
2018-07-22T04:35:34.402Z,12.73
2018-07-22T04:38:02.687Z,15.63
2018-07-22T04:40:31.004Z,14.73
2018-07-22T04:42:59.241Z,12.43
2018-07-22T04:45:27.541Z,14.73
2018-07-22T04:47:55.823Z,14.33
2018-07-22T04:50:24.097Z,14.90
2018-07-22T04:52:52.383Z,14.53
2018-07-22T04:55:20.729Z,15.27
2018-07-22T04:57:49.013Z,13.50
2018-07-22T05:00:17.260Z,16.90
2018-07-22T05:02:45.541Z,13.50
2018-07-22T05:05:13.844Z,15.53
2018-07-22T05:07:42.096Z,12.27
2018-07-22T05:10:10.395Z,18.30
2018-07-22T05:12:38.752Z,18.37
2018-07-22T05:15:07.172Z,15.00
2018-07-22T05:17:35.499Z,13.17
2018-07-22T05:20:03.863Z,12.80
2018-07-22T05:22:32.228Z,18.17
2018-07-22T05:25:00.632Z,17.30
2018-07-22T05:27:29.089Z,16.53
2018-07-22T05:29:57.617Z,16.60
2018-07-22T05:32:25.941Z,15.20
2018-07-22T05:34:54.287Z,13.97
2018-07-22T05:37:22.787Z,16.93
2018-07-22T05:39:51.155Z,15.87
2018-07-22T05:42:19.463Z,16.77
2018-07-22T05:44:47.796Z,15.03
2018-07-22T05:47:16.069Z,24.90
2018-07-22T05:49:44.330Z,17.27
2018-07-22T05:52:12.618Z,19.00
2018-07-22T05:54:40.928Z,15.50
2018-07-22T05:57:09.239Z,16.37
2018-07-22T05:59:37.529Z,16.53
2018-07-22T06:02:05.994Z,15.50
2018-07-22T06:04:34.255Z,16.57
2018-07-22T06:07:02.562Z,16.70
2018-07-22T06:09:30.861Z,14.20
2018-07-22T06:11:59.226Z,15.70
2018-07-22T06:14:27.600Z,19.40
2018-07-22T06:16:55.900Z,17.37
2018-07-22T06:19:24.180Z,15.93
2018-07-22T06:21:53.077Z,16.23
2018-07-22T06:24:21.492Z,16.50
2018-07-22T06:26:49.889Z,18.50
2018-07-22T06:29:18.488Z,16.77
2018-07-22T06:31:46.755Z,15.43
2018-07-22T06:34:14.999Z,17.37
2018-07-22T06:36:43.277Z,17.37
2018-07-22T06:39:13.140Z,20.27
2018-07-22T06:41:42.475Z,17.47
2018-07-22T06:44:10.907Z,14.20
2018-07-22T06:46:39.253Z,19.37
2018-07-22T06:49:07.780Z,15.00
2018-07-22T06:51:36.095Z,17.73
2018-07-22T06:54:04.451Z,18.80
2018-07-22T06:56:32.770Z,17.60
2018-07-22T06:59:01.123Z,14.47
2018-07-22T07:01:29.555Z,17.70
2018-07-22T07:03:57.896Z,18.60
2018-07-22T07:06:26.168Z,22.17
2018-07-22T07:08:54.251Z,21.43
2018-07-22T07:11:22.477Z,18.77
2018-07-22T07:13:50.811Z,15.75
2018-07-22T07:16:19.132Z,16.75
2018-07-22T07:18:47.534Z,15.45
2018-07-22T07:21:15.818Z,16.40
2018-07-22T07:23:44.063Z,14.90
2018-07-22T07:26:12.343Z,18.15
2018-07-22T07:28:40.587Z,19.45
2018-07-22T07:31:08.834Z,17.12
2018-07-22T07:33:37.162Z,18.92
2018-07-22T07:36:05.860Z,13.38
2018-07-22T07:38:34.122Z,13.22
2018-07-22T07:41:02.528Z,15.18
2018-07-22T07:43:31.439Z,12.78
2018-07-22T07:45:59.783Z,15.90
2018-07-22T07:48:28.147Z,14.70
2018-07-22T07:50:57.398Z,11.90
2018-07-22T07:53:25.689Z,14.33
2018-07-22T07:55:53.722Z,14.05
2018-07-22T07:58:21.948Z,17.55
2018-07-22T08:00:51.115Z,12.88
2018-07-22T08:03:19.171Z,14.78
2018-07-22T08:05:47.496Z,16.87
2018-07-22T08:08:15.984Z,10.65
2018-07-22T08:10:44.269Z,15.90
2018-07-22T08:13:12.624Z,9.98
2018-07-22T08:15:40.957Z,13.50
2018-07-22T08:18:11.334Z,12.65
2018-07-22T08:20:39.624Z,12.45
2018-07-22T08:23:08.083Z,10.70
2018-07-22T08:25:36.445Z,13.70
2018-07-22T08:28:04.867Z,12.65
2018-07-22T08:30:33.247Z,11.57
2018-07-22T08:33:01.476Z,8.63
2018-07-22T08:35:29.755Z,10.48
2018-07-22T08:37:58.021Z,11.48
2018-07-22T08:40:26.088Z,11.63
2018-07-22T08:42:54.384Z,13.62
2018-07-22T08:45:22.614Z,10.85
2018-07-22T08:47:50.907Z,9.95
2018-07-22T08:50:19.185Z,11.88
2018-07-22T08:52:47.287Z,7.78
2018-07-22T08:55:15.973Z,12.40
2018-07-22T08:57:44.274Z,9.08
2018-07-22T09:00:12.540Z,12.68
2018-07-22T09:02:40.809Z,11.30
2018-07-22T09:05:09.162Z,11.95
2018-07-22T09:07:37.251Z,11.50
2018-07-22T09:10:05.561Z,8.88
2018-07-22T09:12:33.929Z,11.00
2018-07-22T09:15:02.191Z,11.18
2018-07-22T09:17:31.165Z,11.15
2018-07-22T09:19:59.447Z,9.58
2018-07-22T09:22:27.880Z,10.63
2018-07-22T09:24:56.211Z,9.20
2018-07-22T09:27:24.484Z,14.03
2018-07-22T09:29:52.803Z,9.00
2018-07-22T09:32:21.060Z,10.25
2018-07-22T09:34:49.343Z,8.10
2018-07-22T09:37:17.661Z,11.22
2018-07-22T09:39:45.953Z,8.83
2018-07-22T09:42:14.259Z,9.23
2018-07-22T09:44:42.528Z,11.90
2018-07-22T09:47:10.851Z,9.05
2018-07-22T09:49:39.515Z,11.68
2018-07-22T09:52:07.804Z,16.50
2018-07-22T09:54:36.019Z,8.55
2018-07-22T09:57:04.307Z,7.12
2018-07-22T09:59:32.551Z,9.63
2018-07-22T10:02:00.563Z,7.35
2018-07-22T10:04:28.865Z,8.73
2018-07-22T10:06:57.128Z,6.62
2018-07-22T10:09:25.470Z,7.58
2018-07-22T10:11:53.774Z,9.53
2018-07-22T10:14:25.391Z,8.13
2018-07-22T10:16:53.629Z,10.58
2018-07-22T10:19:21.991Z,8.53
2018-07-22T10:21:50.365Z,10.03
2018-07-22T10:24:18.763Z,6.47
2018-07-22T10:26:47.103Z,10.88
2018-07-22T10:29:15.350Z,9.25
2018-07-22T10:31:43.651Z,7.33
2018-07-22T10:34:11.943Z,7.50
2018-07-22T10:36:40.263Z,9.08
2018-07-22T10:39:10.579Z,7.78
2018-07-22T10:41:38.855Z,8.28
2018-07-22T10:44:07.110Z,5.30
2018-07-22T10:46:35.894Z,6.22
2018-07-22T10:49:04.220Z,9.20
2018-07-22T10:51:32.608Z,9.05
2018-07-22T10:54:00.845Z,8.48
2018-07-22T10:56:29.475Z,8.88
2018-07-22T10:58:57.673Z,8.93
2018-07-22T11:01:26.259Z,7.30
2018-07-22T11:03:55.005Z,9.20
2018-07-22T11:06:23.418Z,6.62
2018-07-22T11:08:52.396Z,8.78
2018-07-22T11:11:21.155Z,7.30
2018-07-22T11:13:49.850Z,6.08
2018-07-22T11:16:18.540Z,5.95
2018-07-22T11:18:47.378Z,8.20
2018-07-22T11:21:16.492Z,7.22
2018-07-22T11:23:45.174Z,5.78
2018-07-22T11:26:13.883Z,5.65
2018-07-22T11:28:42.854Z,6.17
2018-07-22T11:31:11.536Z,6.70
2018-07-22T11:33:40.342Z,8.05
2018-07-22T11:36:09.054Z,8.35
2018-07-22T11:38:37.837Z,7.97
2018-07-22T11:41:06.763Z,10.13
2018-07-22T11:43:35.456Z,6.25
2018-07-22T11:46:04.063Z,8.28
2018-07-22T11:48:32.557Z,8.98
2018-07-22T11:51:01.327Z,7.20
2018-07-22T11:53:29.919Z,5.80
2018-07-22T11:55:58.755Z,8.35
2018-07-22T11:58:27.235Z,6.37
2018-07-22T12:00:56.406Z,5.83
2018-07-22T12:03:25.548Z,15.30
2018-07-22T12:05:54.063Z,10.18
2018-07-22T12:08:22.900Z,9.60
2018-07-22T12:10:52.074Z,5.53
2018-07-22T12:13:21.283Z,8.63
2018-07-22T12:15:49.982Z,9.78
2018-07-22T12:18:19.011Z,11.08
2018-07-22T12:20:48.281Z,5.97
2018-07-22T12:23:17.316Z,9.93
2018-07-22T12:25:46.027Z,6.33
2018-07-22T12:28:15.099Z,9.20
2018-07-22T12:30:44.092Z,7.53
2018-07-22T12:33:12.451Z,7.55
2018-07-22T12:35:41.964Z,5.47
2018-07-22T12:38:10.331Z,6.95
2018-07-22T12:40:39.962Z,7.87
2018-07-22T12:43:09.601Z,6.28
2018-07-22T12:45:39.554Z,8.65
2018-07-22T12:48:09.914Z,5.60
2018-07-22T12:50:38.595Z,6.25
2018-07-22T12:53:09.142Z,10.43
2018-07-22T12:55:39.304Z,8.63
2018-07-22T12:58:09.560Z,6.97
2018-07-22T13:00:38.979Z,8.10
2018-07-22T13:03:09.254Z,7.30
2018-07-22T13:05:38.935Z,7.25
2018-07-22T13:08:09.165Z,6.35
2018-07-22T13:10:39.142Z,7.72
2018-07-22T13:13:09.069Z,7.60
2018-07-22T13:15:38.517Z,8.70
2018-07-22T13:18:08.033Z,7.67
2018-07-22T13:20:37.577Z,7.62
2018-07-22T13:23:07.178Z,8.10
2018-07-22T13:25:36.170Z,10.18
2018-07-22T13:28:05.638Z,8.88
2018-07-22T13:30:34.921Z,6.35
2018-07-22T13:33:03.590Z,6.62
2018-07-22T13:35:32.902Z,7.87
2018-07-22T13:38:01.856Z,6.75
2018-07-22T13:40:31.023Z,6.67
2018-07-22T13:43:00.846Z,6.03
2018-07-22T13:47:02.038Z,8.00
2018-07-22T13:49:30.947Z,7.35
2018-07-22T13:51:59.435Z,6.45
2018-07-22T13:54:28.545Z,9.10
2018-07-22T13:56:57.776Z,7.08
2018-07-22T13:59:27.187Z,8.15
2018-07-22T14:01:55.879Z,6.08
2018-07-22T14:04:24.670Z,6.45
2018-07-22T14:06:54.137Z,7.95
2018-07-22T14:09:23.620Z,8.83
2018-07-22T14:11:52.685Z,8.05
2018-07-22T14:14:21.384Z,7.33
2018-07-22T14:16:50.302Z,7.97
2018-07-22T14:19:19.743Z,7.95
2018-07-22T14:21:48.530Z,7.90
2018-07-22T14:24:18.288Z,8.43
2018-07-22T14:26:47.810Z,6.92
2018-07-22T14:29:17.625Z,6.25
2018-07-22T14:31:46.664Z,6.50
2018-07-22T14:34:15.705Z,6.33
2018-07-22T14:36:45.009Z,8.98
2018-07-22T14:39:14.113Z,7.75
2018-07-22T14:41:43.171Z,6.97
2018-07-22T14:44:11.718Z,8.13
2018-07-22T14:46:40.638Z,6.12
2018-07-22T14:49:10.475Z,6.95
2018-07-22T14:51:39.540Z,7.03
2018-07-22T14:54:08.554Z,6.60
2018-07-22T14:56:37.346Z,9.45
2018-07-22T14:59:06.230Z,7.95
2018-07-22T15:01:35.149Z,7.17
2018-07-22T15:04:04.448Z,7.72
2018-07-22T15:06:33.521Z,6.05
2018-07-22T15:09:01.795Z,5.85
2018-07-22T15:11:30.069Z,5.30
2018-07-22T15:13:58.340Z,6.37
2018-07-22T15:16:26.623Z,7.10
2018-07-22T15:18:54.936Z,6.97
2018-07-22T15:21:23.159Z,7.08
2018-07-22T15:23:51.237Z,6.42
2018-07-22T15:26:19.503Z,6.28
2018-07-22T15:28:47.557Z,6.60
2018-07-22T15:31:15.804Z,8.08
2018-07-22T15:33:44.438Z,6.08
2018-07-22T15:36:12.740Z,5.75
2018-07-22T15:38:41.034Z,5.62
2018-07-22T15:41:09.455Z,5.05
2018-07-22T15:43:37.831Z,5.15
2018-07-22T15:46:10.169Z,5.33
2018-07-22T15:48:38.988Z,7.72
2018-07-22T15:51:09.486Z,5.72
2018-07-22T15:53:37.816Z,4.92
2018-07-22T15:56:05.834Z,6.97
2018-07-22T15:58:34.125Z,6.95
2018-07-22T16:01:02.480Z,6.97
2018-07-22T16:03:30.743Z,5.37
2018-07-22T16:05:58.973Z,5.83
2018-07-22T16:08:27.266Z,6.90
2018-07-22T16:10:55.286Z,7.80
2018-07-22T16:13:23.615Z,5.87
2018-07-22T16:15:51.654Z,11.75
2018-07-22T16:18:20.122Z,7.25
2018-07-22T16:20:48.395Z,5.42
2018-07-22T16:23:16.806Z,6.25
2018-07-22T16:25:45.021Z,5.35
2018-07-22T16:28:13.358Z,5.42
2018-07-22T16:30:41.595Z,8.03
2018-07-22T16:33:09.902Z,6.55
2018-07-22T16:35:38.415Z,5.87
2018-07-22T16:38:06.743Z,8.55
2018-07-22T16:40:34.972Z,5.10
2018-07-22T16:43:03.352Z,6.83
2018-07-22T16:45:31.578Z,7.87
2018-07-22T16:47:59.856Z,9.60
2018-07-22T16:50:28.281Z,7.80
2018-07-22T16:52:56.500Z,6.58
2018-07-22T16:55:24.808Z,6.40
2018-07-22T16:57:53.116Z,5.60
2018-07-22T17:00:22.124Z,6.42
2018-07-22T17:02:50.392Z,8.48
2018-07-22T17:05:18.752Z,6.55
2018-07-22T17:07:47.740Z,6.00
2018-07-22T17:10:15.984Z,6.35
2018-07-22T17:12:44.325Z,6.08
2018-07-22T17:15:12.651Z,7.75
2018-07-22T17:17:40.986Z,11.03
2018-07-22T17:20:09.238Z,10.95
2018-07-22T17:22:37.494Z,8.20
2018-07-22T17:25:05.577Z,7.78
2018-07-22T17:27:33.819Z,6.20
2018-07-22T17:30:02.289Z,10.20
2018-07-22T17:32:31.147Z,7.42
2018-07-22T17:34:59.437Z,6.40
2018-07-22T17:37:29.039Z,7.28
2018-07-22T17:39:59.473Z,6.72
2018-07-22T17:42:29.835Z,6.37
2018-07-22T17:44:58.460Z,7.28
2018-07-22T17:47:28.664Z,7.85
2018-07-22T17:49:57.659Z,6.90
2018-07-22T17:52:26.312Z,7.55
2018-07-22T17:54:54.582Z,6.08
2018-07-22T17:57:24.039Z,7.75
2018-07-22T17:59:53.038Z,6.03
2018-07-22T18:02:22.514Z,7.53
2018-07-22T18:04:51.946Z,6.08
2018-07-22T18:07:20.548Z,7.42
2018-07-22T18:09:52.533Z,8.63
2018-07-22T18:12:20.929Z,8.35
2018-07-22T18:14:50.492Z,9.10
2018-07-22T18:17:19.243Z,8.38
2018-07-22T18:19:47.637Z,9.88
2018-07-22T18:22:16.244Z,7.22
2018-07-22T18:24:45.938Z,6.92
2018-07-22T18:27:14.446Z,7.03
2018-07-22T18:29:43.045Z,6.97
2018-07-22T18:32:11.381Z,9.80
2018-07-22T18:34:40.807Z,8.48
2018-07-22T18:37:09.190Z,6.85
2018-07-22T18:39:37.361Z,6.85
2018-07-22T18:42:05.786Z,5.97
2018-07-22T18:44:33.809Z,8.20
2018-07-22T18:47:06.467Z,10.43
2018-07-22T18:49:35.664Z,7.97
2018-07-22T18:52:04.332Z,7.45
2018-07-22T18:54:32.807Z,6.67
2018-07-22T18:57:01.284Z,8.20
2018-07-22T18:59:30.808Z,7.47
2018-07-22T19:02:01.957Z,6.28
2018-07-22T19:04:32.170Z,8.50
2018-07-22T19:07:00.621Z,7.37
2018-07-22T19:09:29.068Z,6.40
2018-07-22T19:11:57.472Z,7.20
2018-07-22T19:14:26.614Z,6.20
2018-07-22T19:16:57.025Z,7.45
2018-07-22T19:19:27.154Z,10.90
2018-07-22T19:21:56.453Z,8.70
2018-07-22T19:24:25.263Z,8.70
2018-07-22T19:26:55.347Z,6.58
2018-07-22T19:29:23.745Z,7.05
2018-07-22T19:31:52.514Z,9.28
2018-07-22T19:34:21.473Z,9.53
2018-07-22T19:36:50.539Z,8.75
2018-07-22T19:39:19.427Z,6.37
2018-07-22T19:41:49.034Z,6.92
2018-07-22T19:44:18.869Z,9.58
2018-07-22T19:46:47.807Z,5.80
2018-07-22T19:49:17.193Z,8.48
2018-07-22T19:51:45.707Z,7.22
2018-07-22T19:54:14.173Z,10.50
2018-07-22T19:56:42.646Z,9.53
2018-07-22T19:59:11.563Z,6.12
2018-07-22T20:01:39.928Z,7.62
2018-07-22T20:04:09.806Z,14.45
2018-07-22T20:06:38.384Z,8.30
2018-07-22T20:09:07.987Z,6.55
2018-07-22T20:11:37.148Z,6.90
2018-07-22T20:14:05.669Z,6.22
2018-07-22T20:16:34.246Z,6.90
2018-07-22T20:19:02.712Z,7.47
2018-07-22T20:21:31.930Z,6.40
2018-07-22T20:24:00.582Z,6.28
2018-07-22T20:26:30.047Z,8.13
2018-07-22T20:28:59.255Z,9.35
2018-07-22T20:31:27.872Z,6.92
2018-07-22T20:33:56.312Z,10.15
2018-07-22T20:36:24.807Z,6.30
2018-07-22T20:38:53.355Z,6.50
2018-07-22T20:41:21.829Z,8.25
2018-07-22T20:43:50.385Z,7.08
2018-07-22T20:46:18.896Z,8.58
2018-07-22T20:48:47.622Z,7.60
2018-07-22T20:51:16.139Z,9.10
2018-07-22T20:53:44.708Z,7.42
2018-07-22T20:56:13.377Z,10.65
2018-07-22T20:58:41.897Z,7.97
2018-07-22T21:01:10.354Z,8.53
2018-07-22T21:03:38.712Z,7.20
2018-07-22T21:06:07.838Z,11.43
2018-07-22T21:08:36.166Z,9.25
2018-07-22T21:11:04.426Z,8.15
2018-07-22T21:13:32.408Z,8.63
2018-07-22T21:16:00.776Z,8.75
2018-07-22T21:18:29.011Z,10.35
2018-07-22T21:20:57.329Z,8.15
2018-07-22T21:23:26.022Z,9.65
2018-07-22T21:25:54.545Z,9.30
2018-07-22T21:28:23.328Z,10.43
2018-07-22T21:30:51.619Z,8.03
2018-07-22T21:33:19.912Z,8.60
2018-07-22T21:35:48.364Z,9.85
2018-07-22T21:38:16.617Z,9.85
2018-07-22T21:40:44.900Z,9.18
2018-07-22T21:43:13.143Z,8.75
2018-07-22T21:45:41.120Z,9.65
2018-07-22T21:48:09.344Z,12.45
2018-07-22T21:50:37.720Z,8.35
2018-07-22T21:53:05.964Z,10.93
2018-07-22T21:55:34.239Z,8.23
2018-07-22T21:58:02.658Z,10.20
2018-07-22T22:00:36.459Z,10.70
2018-07-22T22:03:05.011Z,9.20
2018-07-22T22:05:33.345Z,10.50
2018-07-22T22:08:01.644Z,10.55
2018-07-22T22:10:29.972Z,8.20
2018-07-22T22:12:58.297Z,9.08
2018-07-22T22:15:28.528Z,9.48
2018-07-22T22:17:57.865Z,9.60
2018-07-22T22:20:26.548Z,9.10
2018-07-22T22:22:56.240Z,9.23
2018-07-22T22:25:24.473Z,9.15
2018-07-22T22:27:53.075Z,9.55
2018-07-22T22:30:21.335Z,10.78
2018-07-22T22:32:49.579Z,9.78
2018-07-22T22:35:17.958Z,9.50
2018-07-22T22:37:46.506Z,10.98
2018-07-22T22:40:15.509Z,9.13
2018-07-22T22:42:45.056Z,9.70
2018-07-22T22:45:13.803Z,9.88
2018-07-22T22:47:42.124Z,10.48
2018-07-22T22:50:10.386Z,8.95
2018-07-22T22:52:38.673Z,8.83
2018-07-22T22:55:07.009Z,9.98
2018-07-22T22:57:35.279Z,10.70
2018-07-22T23:00:03.638Z,9.30
2018-07-22T23:02:36.034Z,8.55
2018-07-22T23:05:05.665Z,9.08
2018-07-22T23:07:33.967Z,11.43
2018-07-22T23:10:02.612Z,8.10
2018-07-22T23:12:30.923Z,9.88
2018-07-22T23:14:59.231Z,8.35
2018-07-22T23:17:27.268Z,9.43
2018-07-22T23:19:55.599Z,7.72
2018-07-22T23:22:23.852Z,9.30
2018-07-22T23:24:52.100Z,7.53
2018-07-22T23:27:20.395Z,7.70
2018-07-22T23:29:48.686Z,7.55
2018-07-22T23:32:16.946Z,7.03
2018-07-22T23:34:45.173Z,7.03
2018-07-22T23:37:13.653Z,8.53
2018-07-22T23:39:41.973Z,9.45
2018-07-22T23:42:10.383Z,6.72
2018-07-22T23:44:39.670Z,7.67
2018-07-22T23:47:07.680Z,7.55
2018-07-22T23:49:36.002Z,7.00
2018-07-22T23:52:05.324Z,7.30
2018-07-22T23:54:34.547Z,7.60
2018-07-22T23:57:02.828Z,7.83
2018-07-22T23:59:31.165Z,8.25
